createdAt,value
2023-05-01T00:00:05.503Z,0.00
2023-05-01T00:00:35.429Z,0.00
2023-05-01T00:01:05.654Z,0.00
2023-05-01T00:01:36.865Z,0.00
2023-05-01T00:02:07.582Z,0.00
2023-05-01T00:02:38.805Z,0.00
2023-05-01T00:03:12.749Z,0.00
2023-05-01T00:03:40.732Z,0.00
2023-05-01T00:04:14.212Z,0.00
2023-05-01T00:04:42.622Z,0.00
2023-05-01T00:05:14.410Z,0.00
2023-05-01T00:05:45.071Z,0.00
2023-05-01T00:06:15.612Z,0.00
2023-05-01T00:06:46.774Z,0.00
2023-05-01T00:07:17.951Z,0.00
2023-05-01T00:07:49.100Z,0.00
2023-05-01T00:08:20.206Z,0.00
2023-05-01T00:08:50.508Z,0.00
2023-05-01T00:09:21.593Z,0.00
2023-05-01T00:09:52.583Z,0.00
2023-05-01T00:10:23.839Z,0.00
2023-05-01T00:10:54.988Z,0.00
2023-05-01T00:11:25.526Z,0.00
2023-05-01T00:11:56.530Z,0.00
2023-05-01T00:12:27.521Z,0.00
2023-05-01T00:12:58.805Z,0.00
2023-05-01T00:13:29.948Z,0.00
2023-05-01T00:14:00.851Z,0.00
2023-05-01T00:14:32.130Z,0.00
2023-05-01T00:15:03.561Z,0.00
2023-05-01T00:15:33.856Z,0.00
2023-05-01T00:16:04.552Z,0.00
2023-05-01T00:16:35.780Z,0.00
2023-05-01T00:17:06.506Z,0.00
2023-05-01T00:17:37.563Z,0.00
2023-05-01T00:18:08.633Z,0.00
2023-05-01T00:18:39.677Z,0.00
2023-05-01T00:19:10.922Z,0.00
2023-05-01T00:19:42.630Z,0.00
2023-05-01T00:20:13.408Z,0.00
2023-05-01T00:20:43.506Z,0.00
2023-05-01T00:21:14.643Z,0.00
2023-05-01T00:21:45.628Z,0.00
2023-05-01T00:22:16.876Z,0.00
2023-05-01T00:22:47.566Z,0.00
2023-05-01T00:23:19.832Z,0.00
2023-05-01T00:23:49.966Z,0.00
2023-05-01T00:24:20.904Z,0.00
2023-05-01T00:24:51.502Z,0.00
2023-05-01T00:25:22.869Z,0.00
2023-05-01T00:25:53.719Z,0.00
2023-05-01T00:26:24.952Z,0.00
2023-05-01T00:26:55.746Z,0.00
2023-05-01T00:27:26.571Z,0.00
2023-05-01T00:27:57.813Z,0.00
2023-05-01T00:28:29.359Z,0.00
2023-05-01T00:28:59.512Z,0.00
2023-05-01T00:29:30.645Z,0.00
2023-05-01T00:30:02.132Z,0.00
2023-05-01T00:30:32.644Z,0.00
2023-05-01T00:31:04.407Z,0.00
2023-05-01T00:31:34.935Z,0.00
2023-05-01T00:32:05.999Z,0.00
2023-05-01T00:32:36.739Z,0.00
2023-05-01T00:33:08.108Z,0.00
2023-05-01T00:33:38.717Z,0.00
2023-05-01T00:34:09.577Z,0.00
2023-05-01T00:34:42.114Z,0.00
2023-05-01T00:35:11.899Z,0.00
2023-05-01T00:35:42.967Z,0.00
2023-05-01T00:36:14.249Z,0.00
2023-05-01T00:36:44.973Z,0.00
2023-05-01T00:37:15.590Z,0.00
2023-05-01T00:37:47.013Z,0.00
2023-05-01T00:38:17.828Z,0.00
2023-05-01T00:38:49.143Z,0.00
2023-05-01T00:39:19.948Z,0.00
2023-05-01T00:39:50.782Z,0.00
2023-05-01T00:40:23.038Z,0.00
2023-05-01T00:40:52.647Z,0.00
2023-05-01T00:41:23.582Z,0.00
2023-05-01T00:41:54.643Z,0.00
2023-05-01T00:42:25.883Z,0.00
2023-05-01T00:42:57.120Z,0.00
2023-05-01T00:43:27.815Z,0.00
2023-05-01T00:43:59.409Z,0.00
2023-05-01T00:44:29.905Z,0.00
2023-05-01T00:45:01.364Z,0.00
2023-05-01T00:45:32.116Z,0.00
2023-05-01T00:46:02.752Z,0.00
2023-05-01T00:46:34.779Z,0.00
2023-05-01T00:47:04.792Z,0.00
2023-05-01T00:47:36.258Z,0.00
2023-05-01T00:48:06.985Z,0.00
2023-05-01T00:48:38.052Z,0.00
2023-05-01T00:49:08.849Z,0.00
2023-05-01T00:49:39.684Z,0.00
2023-05-01T00:50:11.098Z,0.00
2023-05-01T00:50:42.080Z,0.00
2023-05-01T00:51:13.142Z,0.00
2023-05-01T00:51:43.699Z,0.00
2023-05-01T00:52:14.674Z,0.00
2023-05-01T00:52:45.958Z,0.00
2023-05-01T00:53:16.763Z,0.00
2023-05-01T00:53:48.336Z,0.00
2023-05-01T00:54:18.716Z,0.00
2023-05-01T00:54:52.176Z,0.00
2023-05-01T00:55:21.439Z,0.00
2023-05-01T00:55:51.712Z,0.00
2023-05-01T00:56:22.716Z,0.00
2023-05-01T00:56:53.957Z,0.00
2023-05-01T00:57:24.733Z,0.00
2023-05-01T00:57:56.059Z,0.00
2023-05-01T00:58:26.795Z,0.00
2023-05-01T00:58:57.750Z,0.00
2023-05-01T00:59:29.287Z,0.00
2023-05-01T00:59:59.711Z,0.00
2023-05-01T01:00:32.061Z,0.00
2023-05-01T01:01:01.817Z,0.00
2023-05-01T01:01:32.875Z,0.00
2023-05-01T01:02:03.760Z,0.00
2023-05-01T01:02:35.370Z,0.00
2023-05-01T01:03:06.001Z,0.00
2023-05-01T01:03:37.020Z,0.00
2023-05-01T01:04:08.091Z,0.00
2023-05-01T01:04:38.987Z,0.00
2023-05-01T01:05:10.359Z,0.00
2023-05-01T01:05:40.980Z,0.00
2023-05-01T01:06:13.851Z,0.00
2023-05-01T01:06:43.051Z,0.00
2023-05-01T01:07:15.087Z,0.00
2023-05-01T01:07:45.754Z,0.00
2023-05-01T01:08:17.132Z,0.00
2023-05-01T01:08:47.143Z,0.00
2023-05-01T01:09:18.196Z,0.00
2023-05-01T01:09:48.780Z,0.00
2023-05-01T01:10:20.449Z,0.00
2023-05-01T01:10:50.704Z,0.00
2023-05-01T01:11:22.127Z,0.00
2023-05-01T01:11:52.788Z,0.00
2023-05-01T01:12:24.208Z,0.00
2023-05-01T01:12:55.371Z,0.00
2023-05-01T01:13:25.682Z,0.00
2023-05-01T01:13:57.139Z,0.00
2023-05-01T01:14:27.808Z,0.00
2023-05-01T01:14:58.786Z,0.00
2023-05-01T01:15:30.380Z,0.00
2023-05-01T01:16:00.953Z,0.00
2023-05-01T01:16:31.909Z,0.00
2023-05-01T01:17:03.295Z,0.00
2023-05-01T01:17:33.834Z,0.00
2023-05-01T01:18:05.150Z,0.00
2023-05-01T01:18:36.421Z,0.00
2023-05-01T01:19:06.993Z,0.00
2023-05-01T01:19:37.983Z,0.00
2023-05-01T01:20:09.497Z,0.00
2023-05-01T01:20:40.008Z,0.00
2023-05-01T01:21:10.807Z,0.00
2023-05-01T01:21:41.761Z,0.00
2023-05-01T01:22:12.824Z,0.00
2023-05-01T01:22:43.836Z,0.00
2023-05-01T01:23:14.801Z,0.00
2023-05-01T01:23:45.977Z,0.00
2023-05-01T01:24:16.798Z,0.00
2023-05-01T01:24:47.821Z,0.00
2023-05-01T01:25:19.305Z,0.00
2023-05-01T01:25:49.918Z,0.00
2023-05-01T01:26:20.756Z,0.00
2023-05-01T01:26:52.000Z,0.00
2023-05-01T01:27:22.884Z,0.00
2023-05-01T01:27:54.206Z,0.00
2023-05-01T01:28:24.806Z,0.00
2023-05-01T01:28:55.877Z,0.00
2023-05-01T01:29:26.954Z,0.00
2023-05-01T01:29:58.156Z,0.00
2023-05-01T01:30:29.922Z,0.00
2023-05-01T01:30:59.818Z,0.00
2023-05-01T01:31:30.904Z,0.00
2023-05-01T01:32:01.827Z,0.00
2023-05-01T01:32:32.841Z,0.00
2023-05-01T01:33:04.357Z,0.00
2023-05-01T01:33:35.210Z,0.00
2023-05-01T01:34:06.049Z,0.00
2023-05-01T01:34:36.830Z,0.00
2023-05-01T01:35:08.034Z,0.00
2023-05-01T01:35:38.848Z,0.00
2023-05-01T01:36:09.790Z,0.00
2023-05-01T01:36:40.979Z,0.00
2023-05-01T01:37:11.859Z,0.00
2023-05-01T01:37:44.860Z,0.00
2023-05-01T01:38:13.963Z,0.00
2023-05-01T01:38:46.190Z,0.00
2023-05-01T01:39:15.854Z,0.00
2023-05-01T01:39:47.200Z,0.00
2023-05-01T01:40:18.255Z,0.00
2023-05-01T01:40:48.784Z,0.00
2023-05-01T01:41:19.920Z,0.00
2023-05-01T01:41:51.135Z,0.00
2023-05-01T01:42:21.983Z,0.00
2023-05-01T01:42:53.172Z,0.00
2023-05-01T01:43:24.484Z,0.00
2023-05-01T01:43:55.142Z,0.00
2023-05-01T01:44:25.961Z,0.00
2023-05-01T01:44:57.178Z,0.00
2023-05-01T01:45:28.931Z,0.00
2023-05-01T01:45:59.039Z,0.00
2023-05-01T01:46:29.907Z,0.00
2023-05-01T01:47:00.830Z,0.00
2023-05-01T01:47:32.264Z,0.00
2023-05-01T01:48:02.930Z,0.00
2023-05-01T01:48:33.994Z,0.00
2023-05-01T01:49:04.854Z,0.00
2023-05-01T01:49:35.913Z,0.00
2023-05-01T01:50:07.316Z,0.00
2023-05-01T01:50:37.873Z,0.00
2023-05-01T01:51:08.898Z,0.00
2023-05-01T01:51:39.888Z,0.00
2023-05-01T01:52:11.023Z,0.00
2023-05-01T01:52:41.922Z,0.00
2023-05-01T01:53:12.908Z,0.00
2023-05-01T01:53:44.428Z,0.00
2023-05-01T01:54:15.127Z,0.00
2023-05-01T01:54:45.857Z,0.00
2023-05-01T01:55:17.777Z,0.00
2023-05-01T01:55:48.089Z,0.00
2023-05-01T01:56:19.295Z,0.00
2023-05-01T01:56:50.287Z,0.00
2023-05-01T01:57:21.013Z,0.00
2023-05-01T01:57:51.902Z,0.00
2023-05-01T01:58:22.857Z,0.00
2023-05-01T01:58:54.299Z,0.00
2023-05-01T01:59:25.298Z,0.00
2023-05-01T01:59:56.272Z,0.00
2023-05-01T02:00:27.779Z,0.00
2023-05-01T02:00:57.888Z,0.00
2023-05-01T02:01:29.390Z,0.00
2023-05-01T02:02:00.058Z,0.00
2023-05-01T02:02:31.320Z,0.00
2023-05-01T02:03:02.261Z,0.00
2023-05-01T02:03:33.205Z,0.00
2023-05-01T02:04:04.169Z,0.00
2023-05-01T02:04:34.890Z,0.00
2023-05-01T02:05:06.997Z,0.00
2023-05-01T02:05:37.015Z,0.00
2023-05-01T02:06:08.063Z,0.00
2023-05-01T02:06:39.385Z,0.00
2023-05-01T02:07:10.136Z,0.00
2023-05-01T02:07:40.968Z,0.00
2023-05-01T02:08:11.961Z,0.00
2023-05-01T02:08:43.126Z,0.00
2023-05-01T02:09:15.988Z,0.00
2023-05-01T02:09:44.975Z,0.00
2023-05-01T02:10:18.553Z,0.00
2023-05-01T02:10:47.177Z,0.00
2023-05-01T02:11:17.954Z,0.00
2023-05-01T02:11:48.973Z,0.00
2023-05-01T02:12:19.901Z,0.00
2023-05-01T02:12:51.036Z,0.00
2023-05-01T02:13:21.962Z,0.00
2023-05-01T02:13:53.340Z,0.00
2023-05-01T02:14:24.068Z,0.00
2023-05-01T02:14:54.969Z,0.00
2023-05-01T02:15:26.719Z,0.00
2023-05-01T02:15:57.049Z,0.00
2023-05-01T02:16:28.023Z,0.00
2023-05-01T02:16:59.337Z,0.00
2023-05-01T02:17:30.077Z,0.00
2023-05-01T02:18:00.956Z,0.00
2023-05-01T02:18:32.248Z,0.00
2023-05-01T02:19:02.957Z,0.00
2023-05-01T02:19:33.971Z,0.00
2023-05-01T02:20:05.486Z,0.00
2023-05-01T02:20:36.003Z,0.00
2023-05-01T02:21:06.989Z,0.00
2023-05-01T02:21:37.935Z,0.00
2023-05-01T02:22:09.175Z,0.00
2023-05-01T02:22:40.005Z,0.00
2023-05-01T02:23:11.072Z,0.00
2023-05-01T02:23:42.002Z,0.00
2023-05-01T02:24:13.009Z,0.00
2023-05-01T02:24:43.940Z,0.00
2023-05-01T02:25:15.740Z,0.00
2023-05-01T02:25:46.386Z,0.00
2023-05-01T02:26:16.934Z,0.00
2023-05-01T02:26:47.982Z,0.00
2023-05-01T02:27:19.015Z,0.00
2023-05-01T02:27:50.275Z,0.00
2023-05-01T02:28:20.985Z,0.00
2023-05-01T02:28:52.592Z,0.00
2023-05-01T02:29:23.013Z,0.00
2023-05-01T02:29:54.219Z,0.00
2023-05-01T02:30:26.123Z,0.00
2023-05-01T02:30:56.222Z,0.00
2023-05-01T02:31:27.071Z,0.00
2023-05-01T02:31:58.082Z,0.00
2023-05-01T02:32:29.571Z,0.00
2023-05-01T02:33:00.248Z,0.00
2023-05-01T02:33:31.041Z,0.00
2023-05-01T02:34:02.221Z,0.00
2023-05-01T02:34:33.076Z,0.00
2023-05-01T02:35:04.155Z,0.00
2023-05-01T02:35:35.375Z,0.00
2023-05-01T02:36:06.094Z,0.00
2023-05-01T02:36:37.015Z,0.00
2023-05-01T02:37:08.085Z,0.00
2023-05-01T02:37:39.553Z,0.00
2023-05-01T02:38:10.547Z,0.00
2023-05-01T02:38:41.473Z,0.00
2023-05-01T02:39:12.376Z,0.00
2023-05-01T02:39:43.068Z,0.00
2023-05-01T02:40:14.250Z,0.00
2023-05-01T02:40:47.082Z,0.00
2023-05-01T02:41:16.480Z,0.00
2023-05-01T02:41:48.960Z,0.00
2023-05-01T02:42:18.238Z,0.00
2023-05-01T02:42:49.278Z,0.00
2023-05-01T02:43:20.224Z,0.00
2023-05-01T02:43:51.584Z,0.00
2023-05-01T02:44:22.062Z,0.00
2023-05-01T02:44:53.036Z,0.00
2023-05-01T02:45:24.823Z,0.00
2023-05-01T02:45:55.251Z,0.00
2023-05-01T02:46:26.312Z,0.00
2023-05-01T02:46:57.150Z,0.00
2023-05-01T02:47:28.207Z,0.00
2023-05-01T02:47:59.433Z,0.00
2023-05-01T02:48:30.026Z,0.00
2023-05-01T02:49:01.466Z,0.00
2023-05-01T02:49:32.301Z,0.00
2023-05-01T02:50:03.542Z,0.00
2023-05-01T02:50:34.272Z,0.00
2023-05-01T02:51:05.043Z,0.00
2023-05-01T02:51:36.052Z,0.00
2023-05-01T02:52:07.354Z,0.00
2023-05-01T02:52:38.318Z,0.00
2023-05-01T02:53:09.111Z,0.00
2023-05-01T02:53:40.463Z,0.00
2023-05-01T02:54:11.110Z,0.00
2023-05-01T02:54:42.075Z,0.00
2023-05-01T02:55:13.542Z,0.00
2023-05-01T02:55:44.108Z,0.00
2023-05-01T02:56:15.530Z,0.00
2023-05-01T02:56:45.977Z,0.00
2023-05-01T02:57:17.075Z,0.00
2023-05-01T02:57:48.506Z,0.00
2023-05-01T02:58:19.312Z,0.00
2023-05-01T02:58:50.288Z,0.00
2023-05-01T02:59:21.354Z,0.00
2023-05-01T02:59:52.130Z,0.00
2023-05-01T03:00:24.237Z,0.00
2023-05-01T03:00:54.569Z,0.00
2023-05-01T03:01:25.691Z,0.00
2023-05-01T03:01:56.132Z,0.00
2023-05-01T03:02:27.182Z,0.00
2023-05-01T03:02:58.252Z,0.00
2023-05-01T03:03:29.180Z,0.00
2023-05-01T03:04:00.258Z,0.00
2023-05-01T03:04:31.320Z,0.00
2023-05-01T03:05:02.553Z,0.00
2023-05-01T03:05:33.030Z,0.00
2023-05-01T03:06:04.147Z,0.00
2023-05-01T03:06:35.231Z,0.00
2023-05-01T03:07:06.094Z,0.00
2023-05-01T03:07:37.551Z,0.00
2023-05-01T03:08:08.361Z,0.00
2023-05-01T03:08:39.263Z,0.00
2023-05-01T03:09:10.538Z,0.00
2023-05-01T03:09:41.095Z,0.00
2023-05-01T03:10:12.780Z,0.00
2023-05-01T03:10:43.570Z,0.00
2023-05-01T03:11:14.572Z,0.00
2023-05-01T03:11:45.435Z,0.00
2023-05-01T03:12:18.667Z,0.00
2023-05-01T03:12:47.240Z,0.00
2023-05-01T03:13:18.677Z,0.00
2023-05-01T03:13:49.349Z,0.00
2023-05-01T03:14:20.978Z,0.00
2023-05-01T03:14:51.612Z,0.00
2023-05-01T03:15:23.327Z,0.00
2023-05-01T03:15:53.473Z,0.00
2023-05-01T03:16:24.645Z,0.00
2023-05-01T03:16:55.566Z,0.00
2023-05-01T03:17:26.345Z,0.00
2023-05-01T03:17:57.213Z,0.00
2023-05-01T03:18:28.149Z,0.00
2023-05-01T03:18:59.193Z,0.00
2023-05-01T03:19:30.222Z,0.00
2023-05-01T03:20:02.278Z,0.00
2023-05-01T03:20:32.251Z,0.00
2023-05-01T03:21:03.598Z,0.00
2023-05-01T03:21:35.118Z,0.00
2023-05-01T03:22:05.154Z,0.00
2023-05-01T03:22:36.163Z,0.00
2023-05-01T03:23:07.151Z,0.00
2023-05-01T03:23:38.175Z,0.00
2023-05-01T03:24:09.156Z,0.00
2023-05-01T03:24:40.748Z,0.00
2023-05-01T03:25:12.324Z,0.00
2023-05-01T03:25:42.412Z,0.00
2023-05-01T03:26:13.573Z,0.00
2023-05-01T03:26:44.324Z,0.00
2023-05-01T03:27:15.203Z,0.00
2023-05-01T03:27:46.195Z,0.00
2023-05-01T03:28:17.101Z,0.00
2023-05-01T03:28:48.583Z,0.00
2023-05-01T03:29:19.187Z,0.00
2023-05-01T03:29:50.332Z,0.00
2023-05-01T03:30:22.739Z,0.00
2023-05-01T03:30:52.297Z,0.00
2023-05-01T03:31:23.395Z,0.00
2023-05-01T03:31:54.196Z,0.00
2023-05-01T03:32:25.870Z,0.00
2023-05-01T03:32:56.277Z,0.00
2023-05-01T03:33:27.229Z,0.00
2023-05-01T03:33:58.209Z,0.00
2023-05-01T03:34:29.152Z,0.00
2023-05-01T03:35:00.566Z,0.00
2023-05-01T03:35:31.755Z,0.00
2023-05-01T03:36:02.438Z,0.00
2023-05-01T03:36:33.263Z,0.00
2023-05-01T03:37:04.737Z,0.00
2023-05-01T03:37:35.397Z,0.00
2023-05-01T03:38:06.302Z,0.00
2023-05-01T03:38:37.595Z,0.00
2023-05-01T03:39:08.262Z,0.00
2023-05-01T03:39:39.186Z,0.00
2023-05-01T03:40:10.817Z,0.00
2023-05-01T03:40:41.247Z,0.00
2023-05-01T03:41:12.251Z,0.00
2023-05-01T03:41:43.397Z,0.00
2023-05-01T03:42:14.941Z,0.00
2023-05-01T03:42:46.258Z,0.00
2023-05-01T03:43:16.212Z,0.00
2023-05-01T03:43:49.580Z,0.00
2023-05-01T03:44:18.305Z,0.00
2023-05-01T03:44:51.621Z,0.00
2023-05-01T03:45:21.461Z,0.00
2023-05-01T03:45:51.338Z,0.00
2023-05-01T03:46:22.405Z,0.00
2023-05-01T03:46:53.305Z,0.00
2023-05-01T03:47:25.014Z,0.00
2023-05-01T03:47:55.388Z,0.00
2023-05-01T03:48:26.400Z,0.00
2023-05-01T03:48:57.448Z,0.00
2023-05-01T03:49:28.600Z,0.00
2023-05-01T03:49:59.663Z,0.00
2023-05-01T03:50:30.762Z,0.00
2023-05-01T03:51:01.541Z,0.00
2023-05-01T03:51:32.763Z,0.00
2023-05-01T03:52:03.647Z,0.00
2023-05-01T03:52:34.800Z,0.00
2023-05-01T03:53:05.595Z,0.00
2023-05-01T03:53:36.337Z,0.00
2023-05-01T03:54:07.393Z,0.00
2023-05-01T03:54:38.554Z,0.00
2023-05-01T03:55:09.982Z,0.00
2023-05-01T03:55:40.488Z,0.00
2023-05-01T03:56:11.231Z,0.00
2023-05-01T03:56:42.633Z,0.00
2023-05-01T03:57:13.629Z,0.00
2023-05-01T03:57:44.651Z,0.00
2023-05-01T03:58:15.605Z,0.00
2023-05-01T03:58:47.122Z,0.00
2023-05-01T03:59:17.408Z,0.00
2023-05-01T03:59:48.396Z,0.00
2023-05-01T04:00:20.080Z,0.00
2023-05-01T04:00:50.456Z,0.00
2023-05-01T04:01:21.812Z,0.00
2023-05-01T04:01:52.374Z,0.00
2023-05-01T04:02:23.414Z,0.00
2023-05-01T04:02:54.437Z,0.00
2023-05-01T04:03:25.571Z,0.00
2023-05-01T04:03:56.660Z,0.00
2023-05-01T04:04:27.697Z,0.00
2023-05-01T04:04:58.396Z,0.00
2023-05-01T04:05:29.684Z,0.00
2023-05-01T04:06:00.590Z,0.00
2023-05-01T04:06:31.501Z,0.00
2023-05-01T04:07:02.452Z,0.00
2023-05-01T04:07:33.639Z,0.00
2023-05-01T04:08:05.067Z,0.00
2023-05-01T04:08:35.750Z,0.00
2023-05-01T04:09:06.684Z,0.00
2023-05-01T04:09:37.401Z,0.00
2023-05-01T04:10:08.551Z,0.00
2023-05-01T04:10:39.373Z,0.00
2023-05-01T04:11:10.349Z,0.00
2023-05-01T04:11:41.349Z,0.36
2023-05-01T04:12:12.283Z,0.00
2023-05-01T04:12:43.359Z,0.00
2023-05-01T04:13:14.783Z,0.85
2023-05-01T04:13:45.506Z,0.36
2023-05-01T04:14:16.405Z,0.85
2023-05-01T04:14:47.473Z,1.22
2023-05-01T04:15:21.180Z,1.71
2023-05-01T04:15:49.784Z,0.36
2023-05-01T04:16:22.790Z,1.71
2023-05-01T04:16:51.735Z,0.85
2023-05-01T04:17:22.857Z,1.22
2023-05-01T04:17:53.983Z,2.08
2023-05-01T04:18:24.629Z,2.08
2023-05-01T04:18:55.475Z,2.57
2023-05-01T04:19:26.634Z,2.94
2023-05-01T04:19:58.039Z,2.08
2023-05-01T04:20:28.966Z,2.57
2023-05-01T04:20:59.357Z,2.57
2023-05-01T04:21:30.911Z,2.94
2023-05-01T04:22:01.619Z,3.43
2023-05-01T04:22:32.856Z,3.79
2023-05-01T04:23:03.587Z,3.43
2023-05-01T04:23:34.471Z,3.43
2023-05-01T04:24:05.793Z,2.94
2023-05-01T04:24:36.706Z,3.79
2023-05-01T04:25:08.195Z,2.57
2023-05-01T04:25:38.531Z,2.94
2023-05-01T04:26:09.443Z,3.43
2023-05-01T04:26:40.723Z,3.43
2023-05-01T04:27:11.432Z,2.94
2023-05-01T04:27:42.559Z,2.08
2023-05-01T04:28:13.425Z,2.94
2023-05-01T04:28:44.581Z,2.57
2023-05-01T04:29:15.765Z,2.08
2023-05-01T04:29:46.868Z,3.79
2023-05-01T04:30:18.624Z,2.57
2023-05-01T04:30:48.475Z,2.94
2023-05-01T04:31:19.870Z,2.94
2023-05-01T04:31:51.179Z,2.57
2023-05-01T04:32:21.427Z,2.57
2023-05-01T04:32:53.233Z,2.57
2023-05-01T04:33:23.522Z,2.94
2023-05-01T04:33:54.756Z,3.43
2023-05-01T04:34:25.471Z,2.94
2023-05-01T04:34:56.486Z,2.94
2023-05-01T04:35:28.306Z,3.43
2023-05-01T04:35:58.523Z,3.79
2023-05-01T04:36:29.329Z,3.43
2023-05-01T04:37:00.487Z,2.94
2023-05-01T04:37:31.462Z,3.79
2023-05-01T04:38:02.526Z,3.79
2023-05-01T04:38:33.462Z,4.28
2023-05-01T04:39:04.807Z,4.28
2023-05-01T04:39:35.982Z,4.28
2023-05-01T04:40:08.630Z,4.77
2023-05-01T04:40:38.473Z,4.28
2023-05-01T04:41:08.614Z,4.77
2023-05-01T04:41:39.646Z,4.28
2023-05-01T04:42:10.505Z,5.14
2023-05-01T04:42:41.468Z,5.14
2023-05-01T04:43:12.809Z,4.77
2023-05-01T04:43:43.924Z,5.99
2023-05-01T04:44:14.657Z,4.77
2023-05-01T04:44:45.540Z,5.14
2023-05-01T04:45:17.335Z,5.63
2023-05-01T04:45:47.716Z,6.48
2023-05-01T04:46:18.638Z,5.99
2023-05-01T04:46:50.586Z,6.85
2023-05-01T04:47:20.567Z,6.48
2023-05-01T04:47:53.971Z,5.99
2023-05-01T04:48:22.670Z,5.99
2023-05-01T04:48:54.356Z,6.85
2023-05-01T04:49:24.671Z,6.85
2023-05-01T04:49:55.893Z,6.48
2023-05-01T04:50:27.410Z,5.99
2023-05-01T04:50:57.584Z,6.85
2023-05-01T04:51:28.561Z,6.85
2023-05-01T04:51:59.816Z,6.48
2023-05-01T04:52:30.570Z,7.34
2023-05-01T04:53:01.720Z,6.85
2023-05-01T04:53:32.868Z,7.70
2023-05-01T04:54:03.834Z,7.34
2023-05-01T04:54:34.809Z,8.19
2023-05-01T04:55:05.705Z,8.19
2023-05-01T04:55:37.277Z,8.19
2023-05-01T04:56:07.500Z,8.56
2023-05-01T04:56:38.577Z,8.19
2023-05-01T04:57:09.689Z,8.56
2023-05-01T04:57:40.735Z,8.56
2023-05-01T04:58:11.546Z,8.56
2023-05-01T04:58:42.601Z,8.56
2023-05-01T04:59:13.753Z,8.56
2023-05-01T04:59:44.548Z,9.54
2023-05-01T05:00:16.340Z,9.05
2023-05-01T05:00:46.608Z,9.54
2023-05-01T05:01:17.805Z,9.91
2023-05-01T05:01:48.861Z,9.54
2023-05-01T05:02:19.970Z,10.39
2023-05-01T05:02:51.015Z,10.77
2023-05-01T05:03:21.656Z,9.54
2023-05-01T05:03:53.086Z,9.91
2023-05-01T05:04:23.870Z,9.91
2023-05-01T05:04:54.454Z,9.91
2023-05-01T05:05:26.480Z,10.39
2023-05-01T05:05:56.601Z,10.39
2023-05-01T05:06:27.742Z,11.62
2023-05-01T05:06:58.875Z,11.62
2023-05-01T05:07:29.768Z,10.77
2023-05-01T05:08:00.927Z,11.25
2023-05-01T05:08:31.746Z,11.25
2023-05-01T05:09:02.924Z,10.77
2023-05-01T05:09:34.472Z,12.11
2023-05-01T05:10:05.162Z,12.11
2023-05-01T05:10:36.380Z,11.62
2023-05-01T05:11:07.013Z,12.48
2023-05-01T05:11:38.009Z,12.97
2023-05-01T05:12:08.556Z,12.11
2023-05-01T05:12:39.686Z,12.97
2023-05-01T05:13:11.716Z,12.97
2023-05-01T05:13:41.591Z,13.33
2023-05-01T05:14:13.092Z,13.33
2023-05-01T05:14:44.409Z,13.82
2023-05-01T05:15:15.430Z,14.68
2023-05-01T05:15:46.024Z,14.68
2023-05-01T05:16:16.938Z,15.17
2023-05-01T05:16:48.203Z,15.17
2023-05-01T05:17:19.147Z,16.02
2023-05-01T05:17:50.224Z,16.39
2023-05-01T05:18:23.128Z,17.25
2023-05-01T05:18:51.871Z,17.25
2023-05-01T05:19:23.101Z,17.73
2023-05-01T05:19:54.264Z,18.11
2023-05-01T05:20:26.635Z,19.08
2023-05-01T05:20:56.070Z,19.45
2023-05-01T05:21:27.330Z,19.45
2023-05-01T05:21:58.002Z,20.80
2023-05-01T05:22:28.885Z,20.31
2023-05-01T05:23:00.454Z,21.16
2023-05-01T05:23:30.692Z,21.65
2023-05-01T05:24:01.807Z,22.87
2023-05-01T05:24:33.017Z,22.87
2023-05-01T05:25:04.603Z,23.85
2023-05-01T05:25:34.924Z,25.56
2023-05-01T05:26:05.662Z,25.94
2023-05-01T05:26:37.225Z,27.65
2023-05-01T05:27:08.526Z,28.14
2023-05-01T05:27:38.931Z,29.48
2023-05-01T05:28:09.923Z,31.19
2023-05-01T05:28:41.262Z,31.56
2023-05-01T05:29:11.613Z,32.05
2023-05-01T05:29:43.038Z,32.90
2023-05-01T05:30:14.827Z,34.62
2023-05-01T05:30:44.721Z,35.48
2023-05-01T05:31:16.393Z,36.82
2023-05-01T05:31:46.889Z,36.82
2023-05-01T05:32:18.201Z,37.68
2023-05-01T05:32:49.083Z,39.02
2023-05-01T05:33:19.803Z,39.88
2023-05-01T05:33:50.789Z,39.88
2023-05-01T05:34:22.316Z,41.10
2023-05-01T05:34:53.552Z,42.45
2023-05-01T05:35:24.380Z,42.45
2023-05-01T05:35:54.902Z,44.65
2023-05-01T05:36:25.847Z,45.02
2023-05-01T05:36:57.172Z,45.87
2023-05-01T05:37:28.400Z,47.22
2023-05-01T05:37:59.254Z,48.56
2023-05-01T05:38:29.682Z,48.07
2023-05-01T05:39:00.822Z,49.79
2023-05-01T05:39:31.725Z,50.28
2023-05-01T05:40:03.418Z,50.65
2023-05-01T05:40:34.743Z,51.14
2023-05-01T05:41:05.063Z,51.99
2023-05-01T05:41:36.685Z,51.14
2023-05-01T05:42:06.646Z,51.50
2023-05-01T05:42:38.586Z,50.65
2023-05-01T05:43:09.025Z,50.28
2023-05-01T05:43:39.857Z,49.42
2023-05-01T05:44:10.724Z,47.71
2023-05-01T05:44:41.800Z,46.73
2023-05-01T05:45:14.724Z,45.87
2023-05-01T05:45:44.406Z,45.51
2023-05-01T05:46:15.066Z,43.80
2023-05-01T05:46:46.485Z,42.94
2023-05-01T05:47:17.479Z,40.73
2023-05-01T05:47:48.126Z,40.73
2023-05-01T05:48:18.760Z,39.02
2023-05-01T05:48:50.259Z,38.17
2023-05-01T05:49:21.335Z,37.68
2023-05-01T05:49:55.014Z,36.82
2023-05-01T05:50:23.980Z,37.19
2023-05-01T05:50:56.093Z,36.33
2023-05-01T05:51:25.135Z,36.33
2023-05-01T05:51:57.332Z,36.82
2023-05-01T05:52:27.244Z,37.19
2023-05-01T05:52:58.100Z,37.19
2023-05-01T05:53:28.876Z,37.19
2023-05-01T05:54:00.504Z,37.68
2023-05-01T05:54:30.997Z,37.68
2023-05-01T05:55:02.371Z,37.68
2023-05-01T05:55:33.394Z,37.68
2023-05-01T05:56:04.249Z,37.68
2023-05-01T05:56:34.953Z,37.68
2023-05-01T05:57:06.309Z,36.82
2023-05-01T05:57:36.847Z,35.97
2023-05-01T05:58:08.003Z,36.82
2023-05-01T05:58:38.724Z,35.48
2023-05-01T05:59:10.864Z,35.11
2023-05-01T05:59:41.564Z,34.25
2023-05-01T06:00:12.834Z,33.76
2023-05-01T06:00:42.927Z,33.39
2023-05-01T06:01:14.087Z,32.42
2023-05-01T06:01:44.996Z,32.05
2023-05-01T06:02:16.156Z,31.56
2023-05-01T06:02:46.846Z,31.56
2023-05-01T06:03:18.042Z,31.19
2023-05-01T06:03:49.394Z,31.19
2023-05-01T06:04:19.724Z,30.70
2023-05-01T06:04:50.863Z,30.34
2023-05-01T06:05:22.297Z,29.85
2023-05-01T06:05:53.268Z,30.34
2023-05-01T06:06:23.890Z,30.70
2023-05-01T06:06:54.935Z,30.70
2023-05-01T06:07:25.918Z,31.19
2023-05-01T06:07:57.445Z,31.19
2023-05-01T06:08:28.373Z,31.56
2023-05-01T06:08:59.180Z,31.56
2023-05-01T06:09:30.269Z,31.19
2023-05-01T06:10:00.899Z,32.42
2023-05-01T06:10:32.291Z,33.39
2023-05-01T06:11:02.965Z,32.90
2023-05-01T06:11:34.012Z,33.39
2023-05-01T06:12:04.933Z,33.76
2023-05-01T06:12:37.747Z,34.25
2023-05-01T06:13:13.381Z,34.25
2023-05-01T06:13:38.617Z,35.11
2023-05-01T06:14:09.645Z,35.48
2023-05-01T06:14:39.998Z,35.97
2023-05-01T06:15:12.077Z,36.33
2023-05-01T06:15:42.387Z,37.68
2023-05-01T06:16:13.532Z,38.53
2023-05-01T06:16:44.198Z,38.53
2023-05-01T06:17:14.822Z,39.39
2023-05-01T06:17:46.315Z,40.24
2023-05-01T06:18:17.421Z,40.73
2023-05-01T06:18:48.330Z,39.88
2023-05-01T06:19:19.054Z,41.10
2023-05-01T06:19:49.853Z,41.10
2023-05-01T06:20:21.961Z,41.96
2023-05-01T06:20:52.568Z,41.96
2023-05-01T06:21:24.771Z,42.94
2023-05-01T06:21:54.066Z,43.31
2023-05-01T06:22:27.131Z,44.16
2023-05-01T06:22:56.697Z,43.80
2023-05-01T06:23:27.281Z,45.02
2023-05-01T06:23:57.811Z,44.65
2023-05-01T06:24:29.098Z,45.87
2023-05-01T06:24:59.898Z,45.87
2023-05-01T06:25:31.847Z,46.73
2023-05-01T06:26:02.261Z,48.07
2023-05-01T06:26:32.896Z,48.93
2023-05-01T06:27:05.352Z,48.93
2023-05-01T06:27:34.882Z,49.42
2023-05-01T06:28:06.158Z,49.79
2023-05-01T06:28:37.465Z,50.28
2023-05-01T06:29:08.580Z,50.28
2023-05-01T06:29:38.965Z,51.99
2023-05-01T06:30:10.681Z,52.48
2023-05-01T06:30:40.991Z,51.99
2023-05-01T06:31:12.502Z,52.85
2023-05-01T06:31:43.270Z,53.70
2023-05-01T06:32:14.482Z,53.70
2023-05-01T06:32:45.250Z,54.56
2023-05-01T06:33:16.263Z,54.19
2023-05-01T06:33:47.296Z,55.05
2023-05-01T06:34:17.838Z,54.56
2023-05-01T06:34:48.885Z,55.41
2023-05-01T06:35:20.665Z,56.27
2023-05-01T06:35:51.154Z,56.27
2023-05-01T06:36:21.927Z,57.25
2023-05-01T06:36:53.185Z,57.62
2023-05-01T06:37:24.208Z,57.62
2023-05-01T06:37:55.389Z,58.48
2023-05-01T06:38:27.067Z,59.33
2023-05-01T06:38:57.156Z,59.33
2023-05-01T06:39:28.451Z,59.82
2023-05-01T06:39:59.457Z,60.19
2023-05-01T06:40:30.677Z,61.17
2023-05-01T06:41:01.686Z,60.68
2023-05-01T06:41:32.122Z,61.53
2023-05-01T06:42:02.921Z,61.53
2023-05-01T06:42:35.421Z,62.39
2023-05-01T06:43:05.383Z,62.88
2023-05-01T06:43:36.168Z,63.24
2023-05-01T06:44:07.454Z,62.88
2023-05-01T06:44:38.259Z,63.73
2023-05-01T06:45:10.782Z,63.24
2023-05-01T06:45:40.327Z,64.59
2023-05-01T06:46:11.334Z,63.73
2023-05-01T06:46:42.802Z,64.10
2023-05-01T06:47:13.278Z,64.59
2023-05-01T06:47:44.374Z,63.73
2023-05-01T06:48:15.372Z,64.96
2023-05-01T06:48:47.262Z,64.10